In Rescue
 
Open Full Screen Window  High Contrast Mode
August 12, 2020 1:44 AM EDT
Weather Information
Wind Direction
  ---
Wind Speed
  00 kt (0 mph)
Wind Gust
  00 kt (0 mph)
Altimeter
30.05 in
Visibility
10 SM
Temperature
21° C
70° F
Dewpoint
21° C
70° F
Humidity
100%
1hr Rain Fall
00.00 in.
24hr Rain Fall
00.00 in.
Sky Condition
Clear
VFR

METAR KI69 120544Z AUTO 00000KT 10SM CLR 21/21 A3005 RMK AO2 T02130206

FAA Disclaimer: The data displayed is for advisory purposes only and is not to be used for flight planning or operations.